sensor_id;sensor_type;location;lat;lon;timestamp;temperature;humidity
9668;DHT22;4872;48.316;10.650;2022-08-21T04:09:25;14.80;99.90
9668;DHT22;4872;48.316;10.650;2022-08-21T04:11:52;14.90;99.90
9668;DHT22;4872;48.316;10.650;2022-08-21T04:14:20;14.80;99.90
9668;DHT22;4872;48.316;10.650;2022-08-21T04:16:47;14.80;99.90
9668;DHT22;4872;48.316;10.650;2022-08-21T04:19:14;14.80;99.90
9668;DHT22;4872;48.316;10.650;2022-08-21T04:21:41;14.80;99.90
9668;DHT22;4872;48.316;10.650;2022-08-21T04:24:09;14.90;99.90
9668;DHT22;4872;48.316;10.650;2022-08-21T04:26:38;14.90;99.90
9668;DHT22;4872;48.316;10.650;2022-08-21T04:29:05;14.80;99.90
9668;DHT22;4872;48.316;10.650;2022-08-21T04:31:33;14.80;99.90
9668;DHT22;4872;48.316;10.650;2022-08-21T04:34:00;14.80;99.90
9668;DHT22;4872;48.316;10.650;2022-08-21T04:36:26;14.80;99.90
9668;DHT22;4872;48.316;10.650;2022-08-21T04:38:53;14.80;99.90
9668;DHT22;4872;48.316;10.650;2022-08-21T04:41:20;14.80;99.90
9668;DHT22;4872;48.316;10.650;2022-08-21T04:43:48;14.80;99.90
9668;DHT22;4872;48.316;10.650;2022-08-21T04:46:15;14.70;99.90
9668;DHT22;4872;48.316;10.650;2022-08-21T04:48:42;14.70;99.90
9668;DHT22;4872;48.316;10.650;2022-08-21T04:51:11;14.60;99.90
9668;DHT22;4872;48.316;10.650;2022-08-21T04:53:41;14.60;99.90
9668;DHT22;4872;48.316;10.650;2022-08-21T04:56:14;14.70;99.90
9668;DHT22;4872;48.316;10.650;2022-08-21T04:58:42;14.70;99.90
9668;DHT22;4872;48.316;10.650;2022-08-21T05:01:13;14.70;99.90
9668;DHT22;4872;48.316;10.650;2022-08-21T05:03:42;14.70;99.90
9668;DHT22;4872;48.316;10.650;2022-08-21T05:06:12;14.60;99.90
9668;DHT22;4872;48.316;10.650;2022-08-21T05:08:40;14.70;99.90
9668;DHT22;4872;48.316;10.650;2022-08-21T05:11:07;14.70;99.90
9668;DHT22;4872;48.316;10.650;2022-08-21T05:13:35;14.80;99.90
9668;DHT22;4872;48.316;10.650;2022-08-21T05:16:03;14.80;99.90
9668;DHT22;4872;48.316;10.650;2022-08-21T05:18:31;14.80;99.90
9668;DHT22;4872;48.316;10.650;2022-08-21T05:20:58;14.80;99.90
9668;DHT22;4872;48.316;10.650;2022-08-21T05:23:25;14.90;99.90
9668;DHT22;4872;48.316;10.650;2022-08-21T05:25:53;14.90;99.90
9668;DHT22;4872;48.316;10.650;2022-08-21T05:28:20;14.90;99.90
9668;DHT22;4872;48.316;10.650;2022-08-21T05:30:47;15.00;99.90
9668;DHT22;4872;48.316;10.650;2022-08-21T05:33:14;15.00;99.90
9668;DHT22;4872;48.316;10.650;2022-08-21T05:35:42;15.00;99.90
9668;DHT22;4872;48.316;10.650;2022-08-21T05:38:09;15.10;99.90
9668;DHT22;4872;48.316;10.650;2022-08-21T05:40:35;15.10;99.90
9668;DHT22;4872;48.316;10.650;2022-08-21T05:43:02;15.10;99.90
9668;DHT22;4872;48.316;10.650;2022-08-21T05:45:31;15.10;99.90
9668;DHT22;4872;48.316;10.650;2022-08-21T05:48:05;15.20;99.90
9668;DHT22;4872;48.316;10.650;2022-08-21T05:50:32;15.20;99.90
9668;DHT22;4872;48.316;10.650;2022-08-21T05:53:00;15.30;99.90
9668;DHT22;4872;48.316;10.650;2022-08-21T05:55:27;15.30;99.90
9668;DHT22;4872;48.316;10.650;2022-08-21T05:57:54;15.40;99.90
9668;DHT22;4872;48.316;10.650;2022-08-21T06:00:21;15.40;99.90
9668;DHT22;4872;48.316;10.650;2022-08-21T06:02:48;15.50;99.90
9668;DHT22;4872;48.316;10.650;2022-08-21T06:05:16;15.50;99.90
9668;DHT22;4872;48.316;10.650;2022-08-21T06:07:43;15.60;99.90
9668;DHT22;4872;48.316;10.650;2022-08-21T06:10:11;15.70;99.90
9668;DHT22;4872;48.316;10.650;2022-08-21T06:12:38;15.80;99.90
9668;DHT22;4872;48.316;10.650;2022-08-21T06:15:05;15.80;99.90
9668;DHT22;4872;48.316;10.650;2022-08-21T06:17:32;15.90;99.90
9668;DHT22;4872;48.316;10.650;2022-08-21T06:19:59;16.00;99.90
9668;DHT22;4872;48.316;10.650;2022-08-21T06:22:26;16.00;99.90
9668;DHT22;4872;48.316;10.650;2022-08-21T06:24:54;16.10;99.90
9668;DHT22;4872;48.316;10.650;2022-08-21T06:27:22;16.20;99.90
9668;DHT22;4872;48.316;10.650;2022-08-21T06:29:49;16.30;99.90
9668;DHT22;4872;48.316;10.650;2022-08-21T06:32:16;16.30;99.90
9668;DHT22;4872;48.316;10.650;2022-08-21T06:34:42;16.40;99.90
9668;DHT22;4872;48.316;10.650;2022-08-21T06:37:09;16.50;99.90
9668;DHT22;4872;48.316;10.650;2022-08-21T06:39:36;16.60;99.90
9668;DHT22;4872;48.316;10.650;2022-08-21T06:42:03;16.70;99.90
9668;DHT22;4872;48.316;10.650;2022-08-21T06:44:31;16.80;99.90
9668;DHT22;4872;48.316;10.650;2022-08-21T06:46:58;16.90;99.90
9668;DHT22;4872;48.316;10.650;2022-08-21T06:49:25;16.90;99.90
9668;DHT22;4872;48.316;10.650;2022-08-21T06:51:52;17.00;99.90
9668;DHT22;4872;48.316;10.650;2022-08-21T06:54:18;17.00;99.90
9668;DHT22;4872;48.316;10.650;2022-08-21T06:56:45;17.10;99.90
9668;DHT22;4872;48.316;10.650;2022-08-21T06:59:12;17.10;99.90
9668;DHT22;4872;48.316;10.650;2022-08-21T07:01:40;17.20;99.90
9668;DHT22;4872;48.316;10.650;2022-08-21T07:04:06;17.20;99.90
9668;DHT22;4872;48.316;10.650;2022-08-21T07:06:34;17.30;99.90
9668;DHT22;4872;48.316;10.650;2022-08-21T07:09:01;17.30;99.90
9668;DHT22;4872;48.316;10.650;2022-08-21T07:11:28;17.30;99.90
9668;DHT22;4872;48.316;10.650;2022-08-21T07:13:55;17.40;99.90
9668;DHT22;4872;48.316;10.650;2022-08-21T07:16:22;17.60;99.90
9668;DHT22;4872;48.316;10.650;2022-08-21T07:18:50;17.60;99.90
9668;DHT22;4872;48.316;10.650;2022-08-21T07:21:17;17.70;99.90
9668;DHT22;4872;48.316;10.650;2022-08-21T07:23:46;17.80;99.90
9668;DHT22;4872;48.316;10.650;2022-08-21T07:26:15;17.90;99.90
9668;DHT22;4872;48.316;10.650;2022-08-21T07:28:42;18.00;99.90
9668;DHT22;4872;48.316;10.650;2022-08-21T07:31:10;18.00;99.90
9668;DHT22;4872;48.316;10.650;2022-08-21T07:33:39;18.00;99.90
9668;DHT22;4872;48.316;10.650;2022-08-21T07:36:08;18.00;99.90
9668;DHT22;4872;48.316;10.650;2022-08-21T07:38:35;18.10;99.90
9668;DHT22;4872;48.316;10.650;2022-08-21T07:41:07;18.20;99.90
9668;DHT22;4872;48.316;10.650;2022-08-21T07:43:37;18.20;99.90
9668;DHT22;4872;48.316;10.650;2022-08-21T07:46:03;18.30;99.90
9668;DHT22;4872;48.316;10.650;2022-08-21T07:48:30;18.40;99.90
9668;DHT22;4872;48.316;10.650;2022-08-21T07:50:58;18.40;99.90
9668;DHT22;4872;48.316;10.650;2022-08-21T07:53:26;18.50;99.90
9668;DHT22;4872;48.316;10.650;2022-08-21T07:55:56;18.60;99.90
9668;DHT22;4872;48.316;10.650;2022-08-21T07:58:23;18.70;99.90
9668;DHT22;4872;48.316;10.650;2022-08-21T08:00:50;18.70;99.90
9668;DHT22;4872;48.316;10.650;2022-08-21T08:03:17;18.80;99.90
9668;DHT22;4872;48.316;10.650;2022-08-21T08:05:44;18.80;99.90
9668;DHT22;4872;48.316;10.650;2022-08-21T08:08:10;18.80;99.90
9668;DHT22;4872;48.316;10.650;2022-08-21T08:10:39;18.80;99.90
9668;DHT22;4872;48.316;10.650;2022-08-21T08:13:05;18.90;99.90
9668;DHT22;4872;48.316;10.650;2022-08-21T08:15:32;19.00;99.90
9668;DHT22;4872;48.316;10.650;2022-08-21T08:17:59;19.10;99.90
9668;DHT22;4872;48.316;10.650;2022-08-21T08:20:26;19.10;99.90
9668;DHT22;4872;48.316;10.650;2022-08-21T08:22:55;19.10;99.90
9668;DHT22;4872;48.316;10.650;2022-08-21T08:25:22;19.20;99.90
9668;DHT22;4872;48.316;10.650;2022-08-21T08:27:51;19.20;99.90
9668;DHT22;4872;48.316;10.650;2022-08-21T08:30:19;19.30;99.90
9668;DHT22;4872;48.316;10.650;2022-08-21T08:32:47;19.30;99.90
9668;DHT22;4872;48.316;10.650;2022-08-21T08:35:15;19.40;99.90
9668;DHT22;4872;48.316;10.650;2022-08-21T08:37:42;19.40;99.90
9668;DHT22;4872;48.316;10.650;2022-08-21T08:40:13;19.50;99.90
9668;DHT22;4872;48.316;10.650;2022-08-21T08:42:41;19.50;99.90
9668;DHT22;4872;48.316;10.650;2022-08-21T08:45:13;19.60;99.90
9668;DHT22;4872;48.316;10.650;2022-08-21T08:47:45;19.70;99.90
9668;DHT22;4872;48.316;10.650;2022-08-21T08:50:18;19.70;99.90
9668;DHT22;4872;48.316;10.650;2022-08-21T08:52:49;19.70;99.90
9668;DHT22;4872;48.316;10.650;2022-08-21T08:55:21;19.80;99.90
9668;DHT22;4872;48.316;10.650;2022-08-21T08:57:51;19.90;99.90
9668;DHT22;4872;48.316;10.650;2022-08-21T09:00:21;19.90;99.90
9668;DHT22;4872;48.316;10.650;2022-08-21T09:02:52;19.90;99.90
9668;DHT22;4872;48.316;10.650;2022-08-21T09:05:24;20.00;99.90
9668;DHT22;4872;48.316;10.650;2022-08-21T09:08:08;20.00;99.90
9668;DHT22;4872;48.316;10.650;2022-08-21T09:10:48;20.10;99.90
9668;DHT22;4872;48.316;10.650;2022-08-21T09:13:23;20.20;99.90
9668;DHT22;4872;48.316;10.650;2022-08-21T09:15:57;20.20;99.90
9668;DHT22;4872;48.316;10.650;2022-08-21T09:18:35;20.30;99.90
9668;DHT22;4872;48.316;10.650;2022-08-21T09:21:11;20.40;99.90
9668;DHT22;4872;48.316;10.650;2022-08-21T09:23:47;20.40;99.90
9668;DHT22;4872;48.316;10.650;2022-08-21T09:26:18;20.50;99.90
9668;DHT22;4872;48.316;10.650;2022-08-21T09:28:46;20.50;99.90
9668;DHT22;4872;48.316;10.650;2022-08-21T09:31:22;20.60;99.90
9668;DHT22;4872;48.316;10.650;2022-08-21T09:33:49;20.60;99.90
9668;DHT22;4872;48.316;10.650;2022-08-21T09:36:24;20.70;99.90
9668;DHT22;4872;48.316;10.650;2022-08-21T09:38:53;20.70;99.90
9668;DHT22;4872;48.316;10.650;2022-08-21T09:41:26;20.60;99.90
9668;DHT22;4872;48.316;10.650;2022-08-21T09:44:24;20.70;99.90
9668;DHT22;4872;48.316;10.650;2022-08-21T09:46:58;20.80;99.90
9668;DHT22;4872;48.316;10.650;2022-08-21T09:49:31;20.90;99.90
9668;DHT22;4872;48.316;10.650;2022-08-21T09:51:59;21.00;99.90
9668;DHT22;4872;48.316;10.650;2022-08-21T09:54:30;21.10;99.90
9668;DHT22;4872;48.316;10.650;2022-08-21T09:56:59;21.10;99.90
9668;DHT22;4872;48.316;10.650;2022-08-21T09:59:45;21.10;99.90
9668;DHT22;4872;48.316;10.650;2022-08-21T10:02:24;21.20;99.90
9668;DHT22;4872;48.316;10.650;2022-08-21T10:04:53;21.20;99.90
9668;DHT22;4872;48.316;10.650;2022-08-21T10:07:23;21.20;99.90
9668;DHT22;4872;48.316;10.650;2022-08-21T10:09:58;21.30;99.90
9668;DHT22;4872;48.316;10.650;2022-08-21T10:12:30;21.30;99.90
9668;DHT22;4872;48.316;10.650;2022-08-21T10:15:05;21.40;99.90
9668;DHT22;4872;48.316;10.650;2022-08-21T10:17:44;21.50;99.90
9668;DHT22;4872;48.316;10.650;2022-08-21T10:20:20;21.50;99.90
9668;DHT22;4872;48.316;10.650;2022-08-21T10:23:07;21.60;99.90
9668;DHT22;4872;48.316;10.650;2022-08-21T10:25:41;21.60;99.90
9668;DHT22;4872;48.316;10.650;2022-08-21T10:28:21;21.70;99.90
9668;DHT22;4872;48.316;10.650;2022-08-21T10:30:54;21.80;99.90
9668;DHT22;4872;48.316;10.650;2022-08-21T10:33:35;21.80;99.90
9668;DHT22;4872;48.316;10.650;2022-08-21T10:36:13;21.90;99.90
9668;DHT22;4872;48.316;10.650;2022-08-21T10:39:12;21.80;99.20
9668;DHT22;4872;48.316;10.650;2022-08-21T10:42:17;21.80;99.90
9668;DHT22;4872;48.316;10.650;2022-08-21T10:44:53;21.80;98.50
9668;DHT22;4872;48.316;10.650;2022-08-21T10:47:29;21.80;98.50
9668;DHT22;4872;48.316;10.650;2022-08-21T10:50:07;21.90;98.10
9668;DHT22;4872;48.316;10.650;2022-08-21T10:52:57;22.10;97.60
9668;DHT22;4872;48.316;10.650;2022-08-21T10:55:32;22.10;96.30
9668;DHT22;4872;48.316;10.650;2022-08-21T10:58:08;22.10;96.50
9668;DHT22;4872;48.316;10.650;2022-08-21T11:00:40;22.20;97.30
9668;DHT22;4872;48.316;10.650;2022-08-21T11:03:12;22.30;97.50
9668;DHT22;4872;48.316;10.650;2022-08-21T11:05:45;22.30;96.80
9668;DHT22;4872;48.316;10.650;2022-08-21T11:08:18;22.40;95.50
9668;DHT22;4872;48.316;10.650;2022-08-21T11:10:50;22.40;93.50
9668;DHT22;4872;48.316;10.650;2022-08-21T11:13:24;22.40;92.80
9668;DHT22;4872;48.316;10.650;2022-08-21T11:15:56;22.40;91.00
9668;DHT22;4872;48.316;10.650;2022-08-21T11:18:27;22.40;91.90
9668;DHT22;4872;48.316;10.650;2022-08-21T11:21:03;22.60;92.20
9668;DHT22;4872;48.316;10.650;2022-08-21T11:23:38;22.60;93.40
9668;DHT22;4872;48.316;10.650;2022-08-21T11:26:09;22.60;92.00
9668;DHT22;4872;48.316;10.650;2022-08-21T11:28:44;22.70;91.70
9668;DHT22;4872;48.316;10.650;2022-08-21T11:31:22;22.70;91.00
9668;DHT22;4872;48.316;10.650;2022-08-21T11:34:02;22.80;93.00
9668;DHT22;4872;48.316;10.650;2022-08-21T11:36:36;22.90;93.50
9668;DHT22;4872;48.316;10.650;2022-08-21T11:39:15;22.90;91.40
9668;DHT22;4872;48.316;10.650;2022-08-21T11:41:47;22.90;91.30
9668;DHT22;4872;48.316;10.650;2022-08-21T11:44:19;23.00;91.30
9668;DHT22;4872;48.316;10.650;2022-08-21T11:46:54;23.00;91.80
9668;DHT22;4872;48.316;10.650;2022-08-21T11:49:38;23.10;90.20
9668;DHT22;4872;48.316;10.650;2022-08-21T11:52:15;23.20;88.10
9668;DHT22;4872;48.316;10.650;2022-08-21T11:54:48;23.20;86.50
9668;DHT22;4872;48.316;10.650;2022-08-21T11:57:19;23.20;85.40
9668;DHT22;4872;48.316;10.650;2022-08-21T11:59:51;23.30;86.70
9668;DHT22;4872;48.316;10.650;2022-08-21T12:02:21;23.20;89.50
9668;DHT22;4872;48.316;10.650;2022-08-21T12:04:53;23.40;88.40
9668;DHT22;4872;48.316;10.650;2022-08-21T12:07:33;23.30;82.60
9668;DHT22;4872;48.316;10.650;2022-08-21T12:10:00;23.30;83.10
9668;DHT22;4872;48.316;10.650;2022-08-21T12:12:30;23.30;81.60
9668;DHT22;4872;48.316;10.650;2022-08-21T12:15:25;23.40;81.60
9668;DHT22;4872;48.316;10.650;2022-08-21T12:17:56;23.50;82.00
9668;DHT22;4872;48.316;10.650;2022-08-21T12:20:35;23.60;83.30
9668;DHT22;4872;48.316;10.650;2022-08-21T12:23:14;23.60;84.80
9668;DHT22;4872;48.316;10.650;2022-08-21T12:25:44;23.80;83.50
9668;DHT22;4872;48.316;10.650;2022-08-21T12:28:15;23.90;85.30
9668;DHT22;4872;48.316;10.650;2022-08-21T12:30:44;24.10;86.60
9668;DHT22;4872;48.316;10.650;2022-08-21T12:33:24;24.40;83.30
9668;DHT22;4872;48.316;10.650;2022-08-21T12:36:02;24.40;78.80
9668;DHT22;4872;48.316;10.650;2022-08-21T12:38:39;24.50;78.00
9668;DHT22;4872;48.316;10.650;2022-08-21T12:41:14;24.70;80.60
9668;DHT22;4872;48.316;10.650;2022-08-21T12:43:45;24.90;84.90
9668;DHT22;4872;48.316;10.650;2022-08-21T12:46:15;25.10;82.50
9668;DHT22;4872;48.316;10.650;2022-08-21T12:48:47;25.40;80.20
9668;DHT22;4872;48.316;10.650;2022-08-21T12:51:18;25.50;80.10
9668;DHT22;4872;48.316;10.650;2022-08-21T12:53:51;25.80;79.40
9668;DHT22;4872;48.316;10.650;2022-08-21T12:56:20;26.00;77.50
9668;DHT22;4872;48.316;10.650;2022-08-21T12:58:49;26.20;72.90
9668;DHT22;4872;48.316;10.650;2022-08-21T13:01:20;26.20;70.20
9668;DHT22;4872;48.316;10.650;2022-08-21T13:03:50;26.10;68.90
9668;DHT22;4872;48.316;10.650;2022-08-21T13:06:18;26.20;67.10
9668;DHT22;4872;48.316;10.650;2022-08-21T13:08:47;26.30;65.60
9668;DHT22;4872;48.316;10.650;2022-08-21T13:11:18;26.30;66.30
9668;DHT22;4872;48.316;10.650;2022-08-21T13:13:49;26.40;67.30
9668;DHT22;4872;48.316;10.650;2022-08-21T13:16:20;26.40;64.40
9668;DHT22;4872;48.316;10.650;2022-08-21T13:18:54;26.40;67.10
9668;DHT22;4872;48.316;10.650;2022-08-21T13:21:21;26.50;65.80
9668;DHT22;4872;48.316;10.650;2022-08-21T13:23:48;26.70;66.30
9668;DHT22;4872;48.316;10.650;2022-08-21T13:26:18;26.90;66.20
9668;DHT22;4872;48.316;10.650;2022-08-21T13:28:45;27.20;65.90
9668;DHT22;4872;48.316;10.650;2022-08-21T13:31:18;27.60;65.50
9668;DHT22;4872;48.316;10.650;2022-08-21T13:33:45;27.70;66.20
9668;DHT22;4872;48.316;10.650;2022-08-21T13:36:15;28.20;67.40
9668;DHT22;4872;48.316;10.650;2022-08-21T13:38:44;28.50;70.30
9668;DHT22;4872;48.316;10.650;2022-08-21T13:41:24;28.90;69.10
9668;DHT22;4872;48.316;10.650;2022-08-21T13:43:57;29.20;68.60
9668;DHT22;4872;48.316;10.650;2022-08-21T13:46:27;29.50;68.60
9668;DHT22;4872;48.316;10.650;2022-08-21T13:48:54;29.70;63.50
9668;DHT22;4872;48.316;10.650;2022-08-21T13:51:23;29.80;60.20
9668;DHT22;4872;48.316;10.650;2022-08-21T13:53:51;30.00;57.90
9668;DHT22;4872;48.316;10.650;2022-08-21T13:56:24;29.80;56.60
9668;DHT22;4872;48.316;10.650;2022-08-21T13:58:52;29.90;55.00
9668;DHT22;4872;48.316;10.650;2022-08-21T14:01:23;29.90;54.70
9668;DHT22;4872;48.316;10.650;2022-08-21T14:03:54;30.00;56.20
9668;DHT22;4872;48.316;10.650;2022-08-21T14:06:24;30.00;54.60
9668;DHT22;4872;48.316;10.650;2022-08-21T14:08:55;29.90;51.40
9668;DHT22;4872;48.316;10.650;2022-08-21T14:11:25;29.60;51.70
9668;DHT22;4872;48.316;10.650;2022-08-21T14:13:58;29.40;52.00
9668;DHT22;4872;48.316;10.650;2022-08-21T14:16:27;29.50;52.20
9668;DHT22;4872;48.316;10.650;2022-08-21T14:19:09;29.50;50.70
9668;DHT22;4872;48.316;10.650;2022-08-21T14:21:37;29.80;54.00
9668;DHT22;4872;48.316;10.650;2022-08-21T14:24:09;30.00;50.30
9668;DHT22;4872;48.316;10.650;2022-08-21T14:26:46;30.40;52.60
9668;DHT22;4872;48.316;10.650;2022-08-21T14:29:15;30.80;51.30
9668;DHT22;4872;48.316;10.650;2022-08-21T14:31:42;31.00;49.60
9668;DHT22;4872;48.316;10.650;2022-08-21T14:34:11;30.70;49.60
9668;DHT22;4872;48.316;10.650;2022-08-21T14:36:38;30.80;49.80
9668;DHT22;4872;48.316;10.650;2022-08-21T14:39:05;31.10;50.40
9668;DHT22;4872;48.316;10.650;2022-08-21T14:41:32;31.50;49.20
9668;DHT22;4872;48.316;10.650;2022-08-21T14:44:00;31.40;48.10
9668;DHT22;4872;48.316;10.650;2022-08-21T14:46:29;31.70;48.80
9668;DHT22;4872;48.316;10.650;2022-08-21T14:48:57;31.90;48.30
9668;DHT22;4872;48.316;10.650;2022-08-21T14:51:24;32.10;47.10
9668;DHT22;4872;48.316;10.650;2022-08-21T14:53:51;32.20;47.10
9668;DHT22;4872;48.316;10.650;2022-08-21T14:56:17;32.20;49.00
9668;DHT22;4872;48.316;10.650;2022-08-21T14:58:49;32.60;49.00
9668;DHT22;4872;48.316;10.650;2022-08-21T15:01:20;32.90;48.60
9668;DHT22;4872;48.316;10.650;2022-08-21T15:03:47;33.30;47.90
9668;DHT22;4872;48.316;10.650;2022-08-21T15:06:16;33.70;46.70
9668;DHT22;4872;48.316;10.650;2022-08-21T15:08:43;34.10;45.90
9668;DHT22;4872;48.316;10.650;2022-08-21T15:11:14;34.10;45.40
9668;DHT22;4872;48.316;10.650;2022-08-21T15:13:42;34.30;45.10
9668;DHT22;4872;48.316;10.650;2022-08-21T15:16:11;34.40;45.80
9668;DHT22;4872;48.316;10.650;2022-08-21T15:18:39;34.20;44.30
9668;DHT22;4872;48.316;10.650;2022-08-21T15:21:07;34.40;45.50
9668;DHT22;4872;48.316;10.650;2022-08-21T15:23:34;34.50;44.80
9668;DHT22;4872;48.316;10.650;2022-08-21T15:26:01;34.50;43.90
9668;DHT22;4872;48.316;10.650;2022-08-21T15:28:28;34.30;43.20
9668;DHT22;4872;48.316;10.650;2022-08-21T15:30:55;34.30;43.40
9668;DHT22;4872;48.316;10.650;2022-08-21T15:33:21;34.50;45.50
9668;DHT22;4872;48.316;10.650;2022-08-21T15:35:50;34.80;44.30
9668;DHT22;4872;48.316;10.650;2022-08-21T15:38:17;34.90;43.50
9668;DHT22;4872;48.316;10.650;2022-08-21T15:40:44;35.00;43.50
9668;DHT22;4872;48.316;10.650;2022-08-21T15:43:20;35.10;42.90
9668;DHT22;4872;48.316;10.650;2022-08-21T15:45:47;35.10;42.80
9668;DHT22;4872;48.316;10.650;2022-08-21T15:48:14;35.00;43.30
9668;DHT22;4872;48.316;10.650;2022-08-21T15:50:40;34.80;42.10
9668;DHT22;4872;48.316;10.650;2022-08-21T15:53:08;34.60;43.30
9668;DHT22;4872;48.316;10.650;2022-08-21T15:55:35;34.60;44.00
9668;DHT22;4872;48.316;10.650;2022-08-21T15:58:04;34.10;43.10
9668;DHT22;4872;48.316;10.650;2022-08-21T16:00:32;34.20;44.30
9668;DHT22;4872;48.316;10.650;2022-08-21T16:03:02;34.10;44.00
9668;DHT22;4872;48.316;10.650;2022-08-21T16:05:30;34.10;43.70
9668;DHT22;4872;48.316;10.650;2022-08-21T16:07:57;34.00;42.90
9668;DHT22;4872;48.316;10.650;2022-08-21T16:10:25;34.00;42.70
9668;DHT22;4872;48.316;10.650;2022-08-21T16:12:55;33.60;42.20
9668;DHT22;4872;48.316;10.650;2022-08-21T16:15:24;33.30;44.20
9668;DHT22;4872;48.316;10.650;2022-08-21T16:17:52;33.10;43.30
9668;DHT22;4872;48.316;10.650;2022-08-21T16:20:21;32.90;43.80
9668;DHT22;4872;48.316;10.650;2022-08-21T16:22:49;32.70;44.20
9668;DHT22;4872;48.316;10.650;2022-08-21T16:25:16;32.60;43.60
9668;DHT22;4872;48.316;10.650;2022-08-21T16:27:46;32.60;43.80
9668;DHT22;4872;48.316;10.650;2022-08-21T16:30:15;32.30;43.80
9668;DHT22;4872;48.316;10.650;2022-08-21T16:32:42;31.80;44.90
9668;DHT22;4872;48.316;10.650;2022-08-21T16:35:11;31.30;45.30
9668;DHT22;4872;48.316;10.650;2022-08-21T16:37:39;31.20;46.20
9668;DHT22;4872;48.316;10.650;2022-08-21T16:40:07;31.00;46.40
9668;DHT22;4872;48.316;10.650;2022-08-21T16:42:34;30.90;47.10
9668;DHT22;4872;48.316;10.650;2022-08-21T16:45:05;30.50;45.40
9668;DHT22;4872;48.316;10.650;2022-08-21T16:47:32;30.30;45.30
9668;DHT22;4872;48.316;10.650;2022-08-21T16:49:59;30.20;46.20
9668;DHT22;4872;48.316;10.650;2022-08-21T16:52:26;30.10;47.50
9668;DHT22;4872;48.316;10.650;2022-08-21T16:54:52;29.80;46.10
9668;DHT22;4872;48.316;10.650;2022-08-21T16:57:19;29.40;45.60
9668;DHT22;4872;48.316;10.650;2022-08-21T16:59:46;29.10;45.80
9668;DHT22;4872;48.316;10.650;2022-08-21T17:02:20;28.70;47.30
9668;DHT22;4872;48.316;10.650;2022-08-21T17:04:50;28.20;46.90
9668;DHT22;4872;48.316;10.650;2022-08-21T17:07:16;27.60;48.30
9668;DHT22;4872;48.316;10.650;2022-08-21T17:09:43;27.40;49.40
9668;DHT22;4872;48.316;10.650;2022-08-21T17:12:11;27.20;49.20
9668;DHT22;4872;48.316;10.650;2022-08-21T17:14:37;26.90;49.20
9668;DHT22;4872;48.316;10.650;2022-08-21T17:17:06;26.70;49.40
9668;DHT22;4872;48.316;10.650;2022-08-21T17:19:35;26.50;50.10
9668;DHT22;4872;48.316;10.650;2022-08-21T17:22:03;26.30;50.70
9668;DHT22;4872;48.316;10.650;2022-08-21T17:24:30;26.20;50.80
9668;DHT22;4872;48.316;10.650;2022-08-21T17:26:57;26.20;50.50
9668;DHT22;4872;48.316;10.650;2022-08-21T17:29:27;25.90;50.70
9668;DHT22;4872;48.316;10.650;2022-08-21T17:31:54;25.80;52.10
9668;DHT22;4872;48.316;10.650;2022-08-21T17:34:22;25.70;52.30
9668;DHT22;4872;48.316;10.650;2022-08-21T17:36:51;25.70;54.20
9668;DHT22;4872;48.316;10.650;2022-08-21T17:39:18;25.60;53.40
9668;DHT22;4872;48.316;10.650;2022-08-21T17:41:45;25.50;55.10
9668;DHT22;4872;48.316;10.650;2022-08-21T17:44:14;25.40;55.40
9668;DHT22;4872;48.316;10.650;2022-08-21T17:46:42;25.30;56.30
9668;DHT22;4872;48.316;10.650;2022-08-21T17:49:09;25.10;55.90
9668;DHT22;4872;48.316;10.650;2022-08-21T17:51:36;25.00;57.30
9668;DHT22;4872;48.316;10.650;2022-08-21T17:54:04;24.90;58.70
9668;DHT22;4872;48.316;10.650;2022-08-21T17:56:35;24.70;59.60
9668;DHT22;4872;48.316;10.650;2022-08-21T17:59:03;24.60;59.40
9668;DHT22;4872;48.316;10.650;2022-08-21T18:01:34;24.50;61.90
9668;DHT22;4872;48.316;10.650;2022-08-21T18:04:04;24.40;63.90
9668;DHT22;4872;48.316;10.650;2022-08-21T18:06:31;24.20;65.70
9668;DHT22;4872;48.316;10.650;2022-08-21T18:08:57;24.00;67.00
9668;DHT22;4872;48.316;10.650;2022-08-21T18:11:28;23.90;67.80
9668;DHT22;4872;48.316;10.650;2022-08-21T18:13:56;23.80;69.40
9668;DHT22;4872;48.316;10.650;2022-08-21T18:16:26;23.70;70.60
9668;DHT22;4872;48.316;10.650;2022-08-21T18:18:53;23.50;71.50
9668;DHT22;4872;48.316;10.650;2022-08-21T18:21:20;23.50;71.80
9668;DHT22;4872;48.316;10.650;2022-08-21T18:23:47;23.30;73.30
9668;DHT22;4872;48.316;10.650;2022-08-21T18:26:18;23.20;74.00
9668;DHT22;4872;48.316;10.650;2022-08-21T18:28:47;23.00;75.50
9668;DHT22;4872;48.316;10.650;2022-08-21T18:31:14;22.80;75.50
9668;DHT22;4872;48.316;10.650;2022-08-21T18:33:42;22.90;74.90
9668;DHT22;4872;48.316;10.650;2022-08-21T18:36:09;22.70;74.80
9668;DHT22;4872;48.316;10.650;2022-08-21T18:38:35;22.60;75.40
9668;DHT22;4872;48.316;10.650;2022-08-21T18:41:03;22.50;76.40
9668;DHT22;4872;48.316;10.650;2022-08-21T18:43:29;22.40;76.40
9668;DHT22;4872;48.316;10.650;2022-08-21T18:45:58;22.40;76.40
9668;DHT22;4872;48.316;10.650;2022-08-21T18:48:24;22.30;75.50
9668;DHT22;4872;48.316;10.650;2022-08-21T18:50:51;22.20;75.60
9668;DHT22;4872;48.316;10.650;2022-08-21T18:53:18;22.20;76.40
9668;DHT22;4872;48.316;10.650;2022-08-21T18:55:45;22.00;76.70
9668;DHT22;4872;48.316;10.650;2022-08-21T18:58:13;21.90;77.10
9668;DHT22;4872;48.316;10.650;2022-08-21T19:00:42;21.90;77.50
9668;DHT22;4872;48.316;10.650;2022-08-21T19:03:13;21.80;78.00
9668;DHT22;4872;48.316;10.650;2022-08-21T19:05:41;21.70;78.60
9668;DHT22;4872;48.316;10.650;2022-08-21T19:08:10;21.60;79.10
9668;DHT22;4872;48.316;10.650;2022-08-21T19:10:38;21.60;80.20
9668;DHT22;4872;48.316;10.650;2022-08-21T19:13:05;21.50;81.30
9668;DHT22;4872;48.316;10.650;2022-08-21T19:15:33;21.40;84.30
9668;DHT22;4872;48.316;10.650;2022-08-21T19:18:02;21.30;86.40
9668;DHT22;4872;48.316;10.650;2022-08-21T19:20:32;21.10;88.70
9668;DHT22;4872;48.316;10.650;2022-08-21T19:23:02;21.00;90.10
9668;DHT22;4872;48.316;10.650;2022-08-21T19:25:29;20.90;90.20
9668;DHT22;4872;48.316;10.650;2022-08-21T19:27:57;20.90;90.80
9668;DHT22;4872;48.316;10.650;2022-08-21T19:30:24;20.70;91.50
9668;DHT22;4872;48.316;10.650;2022-08-21T19:32:52;20.60;92.40
9668;DHT22;4872;48.316;10.650;2022-08-21T19:35:19;20.50;93.20
9668;DHT22;4872;48.316;10.650;2022-08-21T19:37:47;20.40;93.80
9668;DHT22;4872;48.316;10.650;2022-08-21T19:40:14;20.40;94.70
9668;DHT22;4872;48.316;10.650;2022-08-21T19:42:41;20.20;94.30
9668;DHT22;4872;48.316;10.650;2022-08-21T19:45:09;20.20;93.00
9668;DHT22;4872;48.316;10.650;2022-08-21T19:47:38;20.20;92.90
9668;DHT22;4872;48.316;10.650;2022-08-21T19:50:08;20.20;92.90
9668;DHT22;4872;48.316;10.650;2022-08-21T19:52:35;20.20;92.70
9668;DHT22;4872;48.316;10.650;2022-08-21T19:55:03;20.10;92.90
9668;DHT22;4872;48.316;10.650;2022-08-21T19:57:30;20.10;93.60
9668;DHT22;4872;48.316;10.650;2022-08-21T19:59:57;20.10;93.20
9668;DHT22;4872;48.316;10.650;2022-08-21T20:02:24;20.00;93.10
9668;DHT22;4872;48.316;10.650;2022-08-21T20:04:50;20.00;93.50
9668;DHT22;4872;48.316;10.650;2022-08-21T20:07:17;19.80;93.60
9668;DHT22;4872;48.316;10.650;2022-08-21T20:09:44;19.90;94.00